createdAt,value
2019-04-21T00:00:35.526Z,1021.89
2019-04-21T00:01:38.757Z,1021.90
2019-04-21T00:02:37.744Z,1021.86
2019-04-21T00:03:40.772Z,1021.88
2019-04-21T00:04:48.446Z,1021.85
2019-04-21T00:05:52.402Z,1021.82
2019-04-21T00:06:56.971Z,1021.78
2019-04-21T00:07:52.808Z,1021.82
2019-04-21T00:08:56.474Z,1021.80
2019-04-21T00:10:16.731Z,1021.79
2019-04-21T00:10:56.713Z,1021.82
2019-04-21T00:11:55.706Z,1021.84
2019-04-21T00:12:53.337Z,1021.84
2019-04-21T00:13:46.992Z,1021.78
2019-04-21T00:14:46.073Z,1021.81
2019-04-21T00:15:40.799Z,1021.80
2019-04-21T00:16:43.223Z,1021.83
2019-04-21T00:17:34.740Z,1021.79
2019-04-21T00:18:41.778Z,1021.77
2019-04-21T00:19:36.703Z,1021.74
2019-04-21T00:20:40.910Z,1021.76
2019-04-21T00:21:40.435Z,1021.74
2019-04-21T00:22:45.487Z,1021.71
2019-04-21T00:23:49.938Z,1021.71
2019-04-21T00:24:46.218Z,1021.72
2019-04-21T00:25:46.017Z,1021.69
2019-04-21T00:26:50.808Z,1021.71
2019-04-21T00:27:47.816Z,1021.71
2019-04-21T00:29:02.276Z,1021.70
2019-04-21T00:29:49.870Z,1021.69
2019-04-21T00:30:50.927Z,1021.67
2019-04-21T00:31:45.837Z,1021.66
2019-04-21T00:32:46.040Z,1021.68
2019-04-21T00:33:35.624Z,1021.62
2019-04-21T00:34:32.141Z,1021.62
2019-04-21T00:35:42.595Z,1021.58
2019-04-21T00:36:42.850Z,1021.58
2019-04-21T00:37:53.412Z,1021.55
2019-04-21T00:39:00.411Z,1021.58
2019-04-21T00:40:53.872Z,1021.58
2019-04-21T00:41:53.736Z,1021.52
2019-04-21T00:42:48.905Z,1021.51
2019-04-21T00:43:44.764Z,1021.49
2019-04-21T00:44:44.288Z,1021.49
2019-04-21T00:45:41.809Z,1021.50
2019-04-21T00:46:44.882Z,1021.49
2019-04-21T00:47:46.308Z,1021.50
2019-04-21T00:48:54.037Z,1021.44
2019-04-21T00:49:52.715Z,1021.46
2019-04-21T00:51:03.359Z,1021.48
2019-04-21T00:52:17.519Z,1021.44
2019-04-21T00:52:58.233Z,1021.45
2019-04-21T00:53:51.149Z,1021.42
2019-04-21T00:54:57.816Z,1021.40
2019-04-21T00:55:53.443Z,1021.39
2019-04-21T00:56:56.959Z,1021.40
2019-04-21T00:58:56.085Z,1021.43
2019-04-21T00:59:52.583Z,1021.42
2019-04-21T01:00:51.128Z,1021.45
2019-04-21T01:01:47.718Z,1021.42
2019-04-21T01:03:55.120Z,1021.40
2019-04-21T01:04:49.510Z,1021.45
2019-04-21T01:05:52.864Z,1021.41
2019-04-21T01:06:55.645Z,1021.38
2019-04-21T01:07:46.990Z,1021.40
2019-04-21T01:08:46.785Z,1021.36
2019-04-21T01:09:45.330Z,1021.34
2019-04-21T01:10:38.354Z,1021.41
2019-04-21T01:11:51.462Z,1021.35
2019-04-21T01:12:49.563Z,1021.32
2019-04-21T01:13:51.749Z,1021.32
2019-04-21T01:14:58.250Z,1021.35
2019-04-21T01:16:56.051Z,1021.32
2019-04-21T01:17:53.259Z,1021.28
2019-04-21T01:18:51.871Z,1021.30
2019-04-21T01:19:46.888Z,1021.28
2019-04-21T01:20:27.576Z,1021.25
2019-04-21T01:21:27.487Z,1021.27
2019-04-21T01:22:27.450Z,1021.26
2019-04-21T01:23:27.586Z,1021.27
2019-04-21T01:24:33.061Z,1021.27
2019-04-21T01:25:32.127Z,1021.28
2019-04-21T01:26:39.320Z,1021.28
2019-04-21T01:27:50.768Z,1021.32
2019-04-21T01:28:44.838Z,1021.29
2019-04-21T01:29:46.018Z,1021.30
2019-04-21T01:30:45.143Z,1021.29
2019-04-21T01:31:42.125Z,1021.30
2019-04-21T01:32:48.174Z,1021.26
2019-04-21T01:33:50.674Z,1021.27
2019-04-21T01:34:45.422Z,1021.27
2019-04-21T01:35:50.982Z,1021.27
2019-04-21T01:36:45.797Z,1021.25
2019-04-21T01:37:52.455Z,1021.19
2019-04-21T01:38:48.304Z,1021.23
2019-04-21T01:39:46.957Z,1021.22
2019-04-21T01:40:45.050Z,1021.22
2019-04-21T01:41:52.549Z,1021.15
2019-04-21T01:42:49.425Z,1021.17
2019-04-21T01:43:45.142Z,1021.23
2019-04-21T01:44:46.206Z,1021.20
2019-04-21T01:45:44.841Z,1021.19
2019-04-21T01:46:42.251Z,1021.14
2019-04-21T01:47:40.890Z,1021.17
2019-04-21T01:48:40.017Z,1021.14
2019-04-21T01:49:37.071Z,1021.14
2019-04-21T01:50:40.908Z,1021.13
2019-04-21T01:51:59.679Z,1021.11
2019-04-21T01:52:50.236Z,1021.13
2019-04-21T01:53:48.314Z,1021.13
2019-04-21T01:54:48.112Z,1021.11
2019-04-21T01:55:43.134Z,1021.11
2019-04-21T01:56:46.557Z,1021.11
2019-04-21T01:57:42.639Z,1021.09
2019-04-21T01:58:36.317Z,1021.06
2019-04-21T01:59:34.958Z,1021.06
2019-04-21T02:00:39.020Z,1021.04
2019-04-21T02:01:46.035Z,1021.03
2019-04-21T02:02:47.698Z,1021.03
2019-04-21T02:04:47.429Z,1020.98
2019-04-21T02:05:56.991Z,1020.96
2019-04-21T02:06:45.613Z,1020.96
2019-04-21T02:07:47.448Z,1021.01
2019-04-21T02:08:41.828Z,1020.98
2019-04-21T02:09:42.003Z,1021.00
2019-04-21T02:10:47.972Z,1020.98
2019-04-21T02:11:53.354Z,1021.01
2019-04-21T02:12:48.819Z,1021.00
2019-04-21T02:13:50.209Z,1020.99
2019-04-21T02:14:54.417Z,1021.00
2019-04-21T02:15:48.935Z,1020.97
2019-04-21T02:16:43.424Z,1021.01
2019-04-21T02:17:45.896Z,1020.98
2019-04-21T02:18:39.097Z,1021.01
2019-04-21T02:19:37.824Z,1020.98
2019-04-21T02:20:34.190Z,1021.00
2019-04-21T02:21:38.288Z,1020.93
2019-04-21T02:22:57.499Z,1020.98
2019-04-21T02:23:50.925Z,1020.96
2019-04-21T02:24:53.372Z,1020.93
2019-04-21T02:25:44.193Z,1020.93
2019-04-21T02:26:41.527Z,1020.91
2019-04-21T02:27:42.874Z,1020.90
2019-04-21T02:28:54.267Z,1020.89
2019-04-21T02:29:49.761Z,1020.86
2019-04-21T02:31:03.006Z,1020.88
2019-04-21T02:32:00.360Z,1020.85
2019-04-21T02:35:04.209Z,1020.85
2019-04-21T02:39:00.271Z,1020.87
2019-04-21T02:40:01.542Z,1020.84
2019-04-21T02:42:01.747Z,1020.79
2019-04-21T02:43:02.743Z,1020.79
2019-04-21T02:43:56.083Z,1020.82
2019-04-21T02:44:51.698Z,1020.76
2019-04-21T02:46:54.261Z,1020.79
2019-04-21T02:47:59.105Z,1020.76
2019-04-21T02:48:56.440Z,1020.75
2019-04-21T02:50:01.944Z,1020.75
2019-04-21T02:51:04.750Z,1020.74
2019-04-21T02:51:54.885Z,1020.70
2019-04-21T02:54:28.787Z,1020.67
2019-04-21T02:54:54.042Z,1020.66
2019-04-21T02:55:51.220Z,1020.67
2019-04-21T02:56:53.429Z,1020.68
2019-04-21T02:57:49.795Z,1020.63
2019-04-21T02:58:51.197Z,1020.60
2019-04-21T03:00:06.894Z,1020.61
2019-04-21T03:00:59.670Z,1020.55
2019-04-21T03:02:04.494Z,1020.57
2019-04-21T03:02:55.380Z,1020.55
2019-04-21T03:04:53.364Z,1020.52
2019-04-21T03:05:52.982Z,1020.50
2019-04-21T03:06:56.363Z,1020.51
2019-04-21T03:07:55.457Z,1020.52
2019-04-21T03:09:45.936Z,1020.49
2019-04-21T03:10:56.778Z,1020.44
2019-04-21T03:12:01.508Z,1020.53
2019-04-21T03:12:44.117Z,1020.43
2019-04-21T03:14:58.183Z,1020.41
2019-04-21T03:16:04.978Z,1020.41
2019-04-21T03:16:40.577Z,1020.37
2019-04-21T03:17:48.717Z,1020.45
2019-04-21T03:18:52.502Z,1020.42
2019-04-21T03:19:51.945Z,1020.43
2019-04-21T03:20:53.252Z,1020.42
2019-04-21T03:21:50.599Z,1020.39
2019-04-21T03:23:16.634Z,1020.37
2019-04-21T03:25:04.545Z,1020.40
2019-04-21T03:29:08.375Z,1020.28
2019-04-21T03:35:25.944Z,1020.22
2019-04-21T03:36:24.603Z,1020.23
2019-04-21T03:37:42.511Z,1020.22
2019-04-21T03:38:43.137Z,1020.19
2019-04-21T03:39:52.779Z,1020.20
2019-04-21T03:40:40.959Z,1020.18
2019-04-21T03:42:01.886Z,1020.23
2019-04-21T03:43:52.632Z,1020.23
2019-04-21T03:44:45.313Z,1020.22
2019-04-21T03:46:47.524Z,1020.19
2019-04-21T03:47:43.514Z,1020.23
2019-04-21T03:48:51.692Z,1020.19
2019-04-21T03:49:56.434Z,1020.19
2019-04-21T03:50:56.317Z,1020.16
2019-04-21T03:51:50.530Z,1020.17
2019-04-21T03:52:58.895Z,1020.20
2019-04-21T03:54:53.789Z,1020.14
2019-04-21T03:56:59.200Z,1020.16
2019-04-21T03:58:05.518Z,1020.16
2019-04-21T03:59:48.897Z,1020.18
2019-04-21T04:01:52.425Z,1020.17
2019-04-21T04:02:55.238Z,1020.15
2019-04-21T04:04:49.876Z,1020.11
2019-04-21T04:05:59.659Z,1020.14
2019-04-21T04:06:58.765Z,1020.08
2019-04-21T04:07:49.949Z,1020.09
2019-04-21T04:08:49.995Z,1020.08
2019-04-21T04:09:44.757Z,1020.10
2019-04-21T04:10:50.371Z,1020.07
2019-04-21T04:11:44.187Z,1020.07
2019-04-21T04:12:48.413Z,1020.06
2019-04-21T04:13:56.313Z,1020.07
2019-04-21T04:16:47.723Z,1020.03
2019-04-21T04:17:40.460Z,1020.04
2019-04-21T04:21:03.606Z,1020.05
2019-04-21T04:21:47.756Z,1020.04
2019-04-21T04:22:48.171Z,1020.09
2019-04-21T04:23:45.622Z,1020.08
2019-04-21T04:25:43.025Z,1020.06
2019-04-21T04:27:01.519Z,1020.02
2019-04-21T04:28:46.009Z,1020.03
2019-04-21T04:29:39.929Z,1020.05
2019-04-21T04:30:45.422Z,1020.01
2019-04-21T04:31:53.454Z,1020.01
2019-04-21T04:33:51.876Z,1020.00
2019-04-21T04:35:52.541Z,1019.98
2019-04-21T04:37:47.058Z,1019.99
2019-04-21T04:38:50.146Z,1019.99
2019-04-21T04:39:51.680Z,1019.95
2019-04-21T04:40:39.298Z,1019.91
2019-04-21T04:41:54.998Z,1019.94
2019-04-21T04:42:46.228Z,1019.94
2019-04-21T04:43:46.161Z,1019.91
2019-04-21T04:45:44.193Z,1019.90
2019-04-21T04:46:44.182Z,1019.89
2019-04-21T04:47:47.055Z,1019.90
2019-04-21T04:48:43.411Z,1019.86
2019-04-21T04:52:09.415Z,1019.85
2019-04-21T04:52:37.824Z,1019.83
2019-04-21T04:55:39.302Z,1019.84
2019-04-21T04:56:38.936Z,1019.82
2019-04-21T04:57:51.268Z,1019.82
2019-04-21T04:59:10.752Z,1019.82
2019-04-21T05:00:01.176Z,1019.84
2019-04-21T05:01:47.865Z,1019.82
2019-04-21T05:02:46.331Z,1019.84
2019-04-21T05:04:46.010Z,1019.85
2019-04-21T05:05:45.110Z,1019.80
2019-04-21T05:07:42.887Z,1019.81
2019-04-21T05:08:52.453Z,1019.80
2019-04-21T05:09:44.675Z,1019.78
2019-04-21T05:10:52.888Z,1019.80
2019-04-21T05:11:44.492Z,1019.82
2019-04-21T05:13:43.520Z,1019.82
2019-04-21T05:14:39.268Z,1019.84
2019-04-21T05:15:37.726Z,1019.82
2019-04-21T05:18:50.349Z,1019.83
2019-04-21T05:19:34.726Z,1019.85
2019-04-21T05:20:29.811Z,1019.83
2019-04-21T05:22:37.501Z,1019.85
2019-04-21T05:23:31.597Z,1019.84
2019-04-21T05:24:25.571Z,1019.85
2019-04-21T05:25:23.693Z,1019.87
2019-04-21T05:26:22.010Z,1019.88
2019-04-21T05:27:23.509Z,1019.92
2019-04-21T05:28:19.832Z,1019.90
2019-04-21T05:29:21.016Z,1019.91
2019-04-21T05:31:33.044Z,1019.94
2019-04-21T05:32:36.207Z,1019.91
2019-04-21T05:33:32.175Z,1019.92
2019-04-21T05:34:27.325Z,1019.99
2019-04-21T05:35:26.360Z,1019.94
2019-04-21T05:36:27.823Z,1019.96
2019-04-21T05:37:25.927Z,1019.98
2019-04-21T05:38:22.295Z,1019.96
2019-04-21T05:39:23.395Z,1019.96
2019-04-21T05:40:24.781Z,1019.98
2019-04-21T05:41:18.428Z,1020.06
2019-04-21T05:42:22.246Z,1020.08
2019-04-21T05:43:28.419Z,1020.04
2019-04-21T05:44:36.206Z,1020.08
2019-04-21T05:45:38.192Z,1020.03
2019-04-21T05:46:25.504Z,1020.08
2019-04-21T05:47:35.404Z,1020.08
2019-04-21T05:48:31.677Z,1020.06
2019-04-21T05:49:22.251Z,1020.08
2019-04-21T05:50:23.867Z,1020.09
2019-04-21T05:51:28.732Z,1020.09
2019-04-21T05:52:24.068Z,1020.07
2019-04-21T05:53:34.372Z,1020.10
2019-04-21T05:54:31.122Z,1020.04
2019-04-21T05:55:34.206Z,1020.07
2019-04-21T05:56:32.589Z,1020.07
2019-04-21T05:57:25.405Z,1020.06
2019-04-21T05:58:27.248Z,1020.10
2019-04-21T05:59:26.252Z,1020.13
2019-04-21T06:00:39.380Z,1020.11
2019-04-21T06:01:36.020Z,1020.10
2019-04-21T06:02:46.476Z,1020.14
2019-04-21T06:03:43.080Z,1020.14
2019-04-21T06:04:45.060Z,1020.18
2019-04-21T06:06:34.190Z,1020.15
2019-04-21T06:07:28.817Z,1020.16
2019-04-21T06:08:28.649Z,1020.21
2019-04-21T06:09:27.418Z,1020.20
2019-04-21T06:10:31.459Z,1020.21
2019-04-21T06:11:25.897Z,1020.19
2019-04-21T06:12:31.591Z,1020.16
2019-04-21T06:13:48.218Z,1020.21
2019-04-21T06:14:30.486Z,1020.18
2019-04-21T06:15:30.199Z,1020.21
2019-04-21T06:16:31.865Z,1020.14
2019-04-21T06:17:29.791Z,1020.14
2019-04-21T06:18:22.395Z,1020.18
2019-04-21T06:19:30.966Z,1020.21
2019-04-21T06:20:27.093Z,1020.22
2019-04-21T06:21:38.554Z,1020.18
2019-04-21T06:22:36.033Z,1020.18
2019-04-21T06:23:24.151Z,1020.20
2019-04-21T06:24:21.539Z,1020.16
2019-04-21T06:27:28.013Z,1020.23
2019-04-21T06:28:28.270Z,1020.22
2019-04-21T06:29:23.480Z,1020.14
2019-04-21T06:30:29.003Z,1020.19
2019-04-21T06:32:38.151Z,1020.21
2019-04-21T06:33:32.245Z,1020.21
2019-04-21T06:34:24.772Z,1020.24
2019-04-21T06:35:35.993Z,1020.29
2019-04-21T06:36:36.344Z,1020.30
2019-04-21T06:37:39.714Z,1020.30
2019-04-21T06:38:38.050Z,1020.34
2019-04-21T06:39:22.998Z,1020.32
2019-04-21T06:40:30.895Z,1020.33
2019-04-21T06:42:23.924Z,1020.30
2019-04-21T06:44:22.684Z,1020.18
2019-04-21T06:45:31.325Z,1020.27
2019-04-21T06:46:33.576Z,1020.34
2019-04-21T06:47:32.442Z,1020.34
2019-04-21T06:48:30.507Z,1020.35
2019-04-21T06:49:23.911Z,1020.42
2019-04-21T06:50:27.114Z,1020.39
2019-04-21T06:51:27.950Z,1020.47
2019-04-21T06:52:44.689Z,1020.47
2019-04-21T06:53:36.231Z,1020.45
2019-04-21T06:54:23.393Z,1020.47
2019-04-21T06:56:20.501Z,1020.48
2019-04-21T06:57:23.170Z,1020.48
2019-04-21T06:58:22.440Z,1020.50
2019-04-21T06:59:25.271Z,1020.48
2019-04-21T07:00:19.530Z,1020.51
2019-04-21T07:01:25.134Z,1020.47
2019-04-21T07:02:39.908Z,1020.47
2019-04-21T07:06:23.925Z,1020.57
2019-04-21T07:07:26.389Z,1020.59
2019-04-21T07:08:30.823Z,1020.61
2019-04-21T07:10:22.771Z,1020.60
2019-04-21T07:11:19.907Z,1020.60
2019-04-21T07:12:19.160Z,1020.61
2019-04-21T07:13:15.594Z,1020.61
2019-04-21T07:14:37.974Z,1020.62
2019-04-21T07:15:25.369Z,1020.64
2019-04-21T07:16:25.443Z,1020.69
2019-04-21T07:17:24.661Z,1020.66
2019-04-21T07:18:25.310Z,1020.69
2019-04-21T07:20:17.335Z,1020.69
2019-04-21T07:21:23.532Z,1020.72
2019-04-21T07:22:24.488Z,1020.73
2019-04-21T07:23:24.045Z,1020.75
2019-04-21T07:24:26.039Z,1020.75
2019-04-21T07:25:23.876Z,1020.77
2019-04-21T07:26:22.239Z,1020.80
2019-04-21T07:27:22.228Z,1020.82
2019-04-21T07:28:21.962Z,1020.85
2019-04-21T07:29:21.957Z,1020.85
2019-04-21T07:30:24.331Z,1020.87
2019-04-21T07:31:19.001Z,1020.87
2019-04-21T07:32:19.037Z,1020.86
2019-04-21T07:33:41.522Z,1020.92
2019-04-21T07:34:36.248Z,1020.94
2019-04-21T07:35:28.118Z,1020.98
2019-04-21T07:36:21.848Z,1021.01
2019-04-21T07:37:17.367Z,1021.07
2019-04-21T07:38:17.981Z,1021.07
2019-04-21T07:39:18.519Z,1021.11
2019-04-21T07:40:14.950Z,1021.16
2019-04-21T07:41:09.670Z,1021.24
2019-04-21T07:42:13.745Z,1021.40
2019-04-21T07:43:10.777Z,1021.51
2019-04-21T07:44:14.983Z,1021.68
2019-04-21T07:45:13.088Z,1021.93
2019-04-21T07:46:10.689Z,1022.26
2019-04-21T07:47:17.079Z,1022.72
2019-04-21T07:48:19.253Z,1023.22
2019-04-21T07:49:12.456Z,1023.58
2019-04-21T07:50:14.788Z,1023.93
2019-04-21T07:51:18.874Z,1024.36
2019-04-21T07:52:18.755Z,1025.17
2019-04-21T07:53:21.854Z,1025.93
2019-04-21T07:54:23.272Z,1026.47
2019-04-21T07:56:06.511Z,1027.56
2019-04-21T07:57:21.331Z,1028.78
2019-04-21T07:58:17.823Z,1029.16
2019-04-21T07:59:23.897Z,1028.38
2019-04-21T08:01:19.933Z,1029.49
2019-04-21T08:03:16.139Z,1032.34
2019-04-21T08:04:33.177Z,1032.30
2019-04-21T08:06:20.667Z,1033.10
2019-04-21T08:07:26.514Z,1031.39
2019-04-21T08:08:14.322Z,1030.36
2019-04-21T08:09:13.650Z,1031.63
2019-04-21T08:10:10.467Z,1034.86
2019-04-21T08:11:10.885Z,1037.10
2019-04-21T08:12:09.539Z,1038.11
2019-04-21T08:13:27.347Z,1038.59
2019-04-21T08:14:18.144Z,1039.14
2019-04-21T08:15:24.957Z,1040.20
2019-04-21T08:16:17.416Z,1040.87
2019-04-21T08:17:14.757Z,1040.76
2019-04-21T08:18:16.660Z,1040.67
2019-04-21T08:19:13.091Z,1040.80
2019-04-21T08:20:13.789Z,1041.60
2019-04-21T08:21:17.820Z,1041.76
2019-04-21T08:22:15.536Z,1041.15
2019-04-21T08:23:13.270Z,1041.24
2019-04-21T08:24:18.233Z,1041.99
2019-04-21T08:25:18.244Z,1042.54
2019-04-21T08:26:30.813Z,1042.32
2019-04-21T08:27:18.880Z,1041.96
2019-04-21T08:28:09.074Z,1042.76
2019-04-21T08:29:21.456Z,1042.74
2019-04-21T08:30:11.522Z,1042.28
2019-04-21T08:31:18.422Z,1042.02
2019-04-21T08:32:17.541Z,1042.34
2019-04-21T08:33:26.246Z,1043.28
2019-04-21T08:34:17.841Z,1043.10
2019-04-21T08:35:38.427Z,1041.30
2019-04-21T08:36:18.530Z,1039.94
2019-04-21T08:37:11.990Z,1039.56
2019-04-21T08:38:16.510Z,1039.79
2019-04-21T08:39:14.020Z,1039.41
2019-04-21T08:40:17.699Z,1037.72
2019-04-21T08:41:15.211Z,1036.59
2019-04-21T08:42:13.206Z,1036.58
2019-04-21T08:43:09.227Z,1036.41
2019-04-21T08:44:10.651Z,1035.61
2019-04-21T08:45:15.057Z,1033.06
2019-04-21T08:46:13.735Z,1030.40
2019-04-21T08:47:12.854Z,1029.74
2019-04-21T08:48:12.149Z,1031.02
2019-04-21T08:49:08.117Z,1032.86
2019-04-21T08:50:11.245Z,1033.45
2019-04-21T08:51:24.515Z,1033.17
2019-04-21T08:52:23.289Z,1032.81
2019-04-21T08:53:19.840Z,1032.21
2019-04-21T08:54:17.015Z,1031.39
2019-04-21T08:55:12.232Z,1030.49
2019-04-21T08:56:34.204Z,1029.85
2019-04-21T08:57:16.693Z,1029.14
2019-04-21T08:58:22.643Z,1028.43
2019-04-21T09:00:16.799Z,1027.89
2019-04-21T09:01:17.785Z,1026.55
2019-04-21T09:02:08.430Z,1025.76
2019-04-21T09:03:14.617Z,1024.91
2019-04-21T09:04:19.877Z,1024.28
2019-04-21T09:05:11.600Z,1024.54
2019-04-21T09:06:19.027Z,1024.46
2019-04-21T09:07:12.951Z,1024.16
2019-04-21T09:08:10.572Z,1024.55
2019-04-21T09:09:14.365Z,1024.34
2019-04-21T09:10:09.453Z,1023.75
2019-04-21T09:11:06.949Z,1022.95
2019-04-21T09:12:10.915Z,1021.99
2019-04-21T09:13:07.437Z,1021.37
2019-04-21T09:14:07.060Z,1021.22
2019-04-21T09:15:08.390Z,1020.98
2019-04-21T09:16:06.561Z,1020.57
2019-04-21T09:17:01.676Z,1020.36
2019-04-21T09:18:04.858Z,1020.27
2019-04-21T09:19:04.468Z,1020.07
2019-04-21T09:20:13.469Z,1019.90
2019-04-21T09:21:11.343Z,1019.79
2019-04-21T09:22:07.038Z,1019.77
2019-04-21T09:23:06.724Z,1019.79
2019-04-21T09:24:11.604Z,1019.79
2019-04-21T09:25:17.304Z,1019.78
2019-04-21T09:26:07.353Z,1019.75
2019-04-21T09:27:07.110Z,1019.80
2019-04-21T09:28:08.858Z,1019.75
2019-04-21T09:29:03.426Z,1019.75
2019-04-21T09:29:54.015Z,1019.76
2019-04-21T09:30:57.294Z,1019.79
2019-04-21T09:31:51.715Z,1019.76
2019-04-21T09:32:53.039Z,1019.75
2019-04-21T09:33:51.983Z,1019.72
2019-04-21T09:34:50.669Z,1019.76
2019-04-21T09:35:54.606Z,1019.75
2019-04-21T09:36:53.131Z,1019.69
2019-04-21T09:37:55.286Z,1019.66
2019-04-21T09:38:58.690Z,1019.64
2019-04-21T09:39:52.106Z,1019.68
2019-04-21T09:40:51.359Z,1019.64
2019-04-21T09:41:49.883Z,1019.55
2019-04-21T09:42:56.893Z,1019.56
2019-04-21T09:43:52.136Z,1019.59
2019-04-21T09:44:53.346Z,1019.59
2019-04-21T09:45:49.364Z,1019.54
2019-04-21T09:46:54.008Z,1019.51
2019-04-21T09:47:57.189Z,1019.50
2019-04-21T09:48:55.417Z,1019.48
2019-04-21T09:49:47.762Z,1019.46
2019-04-21T09:50:48.041Z,1019.44
2019-04-21T09:51:48.279Z,1019.46
2019-04-21T09:52:54.757Z,1019.46
2019-04-21T09:53:56.494Z,1019.50
2019-04-21T09:54:56.610Z,1019.54
2019-04-21T09:55:54.207Z,1019.52
2019-04-21T09:56:57.133Z,1019.51
2019-04-21T09:57:53.562Z,1019.44
2019-04-21T09:58:51.686Z,1019.46
2019-04-21T09:59:57.080Z,1019.51
2019-04-21T10:01:00.043Z,1019.50
2019-04-21T10:01:59.179Z,1019.51
2019-04-21T10:02:56.784Z,1019.51
2019-04-21T10:03:51.056Z,1019.47
2019-04-21T10:04:48.187Z,1019.47
2019-04-21T10:05:47.576Z,1019.48
2019-04-21T10:06:47.614Z,1019.53
2019-04-21T10:07:46.600Z,1019.50
2019-04-21T10:08:50.371Z,1019.49
2019-04-21T10:09:47.777Z,1019.45
2019-04-21T10:10:46.855Z,1019.43
2019-04-21T10:11:46.339Z,1019.47
2019-04-21T10:12:47.685Z,1019.45
2019-04-21T10:13:46.357Z,1019.41
2019-04-21T10:14:47.272Z,1019.41
2019-04-21T10:15:46.306Z,1019.39
2019-04-21T10:16:46.017Z,1019.42
2019-04-21T10:17:47.346Z,1019.35
2019-04-21T10:18:46.126Z,1019.33
2019-04-21T10:19:46.365Z,1019.32
2019-04-21T10:20:46.903Z,1019.30
2019-04-21T10:21:46.589Z,1019.29
2019-04-21T10:22:46.770Z,1019.35
2019-04-21T10:23:45.755Z,1019.40
2019-04-21T10:24:46.623Z,1019.44
2019-04-21T10:25:46.367Z,1019.44
2019-04-21T10:26:53.468Z,1019.39
2019-04-21T10:27:45.437Z,1019.43
2019-04-21T10:28:46.774Z,1019.49
2019-04-21T10:29:46.775Z,1019.50
2019-04-21T10:30:45.123Z,1019.52
2019-04-21T10:31:45.114Z,1019.57
2019-04-21T10:32:46.040Z,1019.68
2019-04-21T10:33:46.169Z,1019.80
2019-04-21T10:34:52.836Z,1019.87
2019-04-21T10:35:44.781Z,1019.90
2019-04-21T10:36:44.905Z,1019.99
2019-04-21T10:37:56.345Z,1020.09
2019-04-21T10:38:48.730Z,1020.16
2019-04-21T10:39:45.351Z,1020.21
2019-04-21T10:40:45.558Z,1020.24
2019-04-21T10:41:45.688Z,1020.20
2019-04-21T10:42:44.312Z,1020.18
2019-04-21T10:43:45.178Z,1020.09
2019-04-21T10:44:45.197Z,1020.10
2019-04-21T10:45:44.216Z,1020.08
2019-04-21T10:46:46.691Z,1019.92
2019-04-21T10:47:45.010Z,1019.87
2019-04-21T10:48:43.911Z,1019.77
2019-04-21T10:49:50.868Z,1019.80
2019-04-21T10:50:45.195Z,1019.74
2019-04-21T10:51:43.814Z,1019.76
2019-04-21T10:52:44.817Z,1019.71
2019-04-21T10:53:45.249Z,1019.55
2019-04-21T10:55:10.100Z,1019.53
2019-04-21T10:55:56.681Z,1019.59
2019-04-21T10:56:44.444Z,1019.64
2019-04-21T10:57:44.306Z,1019.60
2019-04-21T10:58:44.490Z,1019.71
2019-04-21T10:59:48.814Z,1019.74
2019-04-21T11:00:43.991Z,1019.78
2019-04-21T11:01:43.163Z,1019.75
2019-04-21T11:02:43.353Z,1019.75
2019-04-21T11:03:44.902Z,1019.74
2019-04-21T11:04:51.104Z,1019.66
2019-04-21T11:05:42.936Z,1019.61
2019-04-21T11:06:42.723Z,1019.57
2019-04-21T11:07:58.941Z,1019.50
2019-04-21T11:08:45.711Z,1019.39
2019-04-21T11:09:42.605Z,1019.38
2019-04-21T11:10:43.705Z,1019.35
2019-04-21T11:11:51.585Z,1019.37
2019-04-21T11:12:43.164Z,1019.39
2019-04-21T11:13:42.263Z,1019.32
2019-04-21T11:14:43.107Z,1019.28
2019-04-21T11:15:43.156Z,1019.12
2019-04-21T11:16:43.346Z,1018.98
2019-04-21T11:17:43.519Z,1018.92
2019-04-21T11:18:42.208Z,1018.97
2019-04-21T11:19:43.136Z,1018.91
2019-04-21T11:20:42.782Z,1018.83
2019-04-21T11:21:42.897Z,1018.75
2019-04-21T11:22:41.756Z,1018.73
2019-04-21T11:23:41.596Z,1018.77
2019-04-21T11:24:42.911Z,1018.85
2019-04-21T11:25:42.166Z,1018.79
2019-04-21T11:26:42.199Z,1018.68
2019-04-21T11:27:44.838Z,1018.59
2019-04-21T11:28:41.273Z,1018.50
2019-04-21T11:29:41.521Z,1018.43
2019-04-21T11:30:42.345Z,1018.45
2019-04-21T11:31:41.122Z,1018.40
2019-04-21T11:32:43.094Z,1018.37
2019-04-21T11:33:41.034Z,1018.26
2019-04-21T11:34:41.106Z,1018.23
2019-04-21T11:35:41.362Z,1018.29
2019-04-21T11:36:40.745Z,1018.17
2019-04-21T11:37:42.048Z,1018.17
2019-04-21T11:38:57.117Z,1018.12
2019-04-21T11:39:51.219Z,1018.07
2019-04-21T11:40:40.488Z,1018.03
2019-04-21T11:41:41.549Z,1018.03
2019-04-21T11:42:41.754Z,1017.96
2019-04-21T11:43:41.321Z,1017.92
2019-04-21T11:44:41.585Z,1017.88
2019-04-21T11:45:40.271Z,1017.85
2019-04-21T11:46:40.380Z,1017.83
2019-04-21T11:47:40.672Z,1017.79
2019-04-21T11:48:40.076Z,1017.70
2019-04-21T11:49:41.079Z,1017.71
2019-04-21T11:50:41.244Z,1017.71
2019-04-21T11:51:40.773Z,1017.69
2019-04-21T11:52:40.854Z,1017.65
2019-04-21T11:53:40.999Z,1017.55
2019-04-21T11:54:40.650Z,1017.55
2019-04-21T11:55:43.605Z,1017.51
2019-04-21T11:56:39.417Z,1017.48
2019-04-21T11:57:42.783Z,1017.43
2019-04-21T11:58:39.546Z,1017.39
2019-04-21T11:59:39.646Z,1017.39
2019-04-21T12:00:39.927Z,1017.30
2019-04-21T12:01:39.439Z,1017.30
2019-04-21T12:02:39.563Z,1017.28
2019-04-21T12:03:39.970Z,1017.30
2019-04-21T12:04:39.271Z,1017.30
2019-04-21T12:05:41.830Z,1017.27
2019-04-21T12:06:44.433Z,1017.25
2019-04-21T12:07:38.703Z,1017.28
2019-04-21T12:08:43.972Z,1017.22
2019-04-21T12:09:39.577Z,1017.23
2019-04-21T12:10:41.831Z,1017.22
2019-04-21T12:11:41.032Z,1017.16
2019-04-21T12:12:39.260Z,1017.14
2019-04-21T12:13:38.330Z,1017.12
2019-04-21T12:14:39.593Z,1017.11
2019-04-21T12:15:38.926Z,1017.10
2019-04-21T12:16:39.154Z,1017.11
2019-04-21T12:17:39.439Z,1017.11
2019-04-21T12:18:38.806Z,1017.07
2019-04-21T12:19:38.767Z,1017.07
2019-04-21T12:20:37.865Z,1017.02
2019-04-21T12:21:50.532Z,1017.01
2019-04-21T12:22:38.983Z,1016.97
2019-04-21T12:23:38.479Z,1016.99
2019-04-21T12:24:38.133Z,1017.00
2019-04-21T12:25:38.926Z,1017.02
2019-04-21T12:26:37.947Z,1017.04
2019-04-21T12:27:38.030Z,1017.03
2019-04-21T12:28:37.614Z,1016.95
2019-04-21T12:29:37.791Z,1016.93
2019-04-21T12:30:37.763Z,1016.90
2019-04-21T12:31:37.158Z,1016.92
2019-04-21T12:32:38.128Z,1016.88
2019-04-21T12:33:38.136Z,1016.88
2019-04-21T12:34:36.958Z,1016.85
2019-04-21T12:35:37.747Z,1016.88
2019-04-21T12:36:38.026Z,1016.86
2019-04-21T12:37:37.149Z,1016.87
2019-04-21T12:38:43.689Z,1016.84
2019-04-21T12:39:36.927Z,1016.80
2019-04-21T12:40:36.775Z,1016.80
2019-04-21T12:41:36.521Z,1016.79
2019-04-21T12:42:38.851Z,1016.76
2019-04-21T12:43:36.965Z,1016.72
2019-04-21T12:44:37.178Z,1016.72
2019-04-21T12:45:36.250Z,1016.68
2019-04-21T12:46:36.195Z,1016.68
2019-04-21T12:47:36.120Z,1016.70
2019-04-21T12:48:36.042Z,1016.64
2019-04-21T12:49:36.004Z,1016.63
2019-04-21T12:50:36.053Z,1016.59
2019-04-21T12:51:36.012Z,1016.57
2019-04-21T12:52:36.003Z,1016.52
2019-04-21T12:53:35.974Z,1016.46
2019-04-21T12:54:35.883Z,1016.49
2019-04-21T12:55:40.614Z,1016.44
2019-04-21T12:56:35.746Z,1016.47
2019-04-21T12:57:35.469Z,1016.43
2019-04-21T12:58:35.407Z,1016.47
2019-04-21T12:59:36.331Z,1016.40
2019-04-21T13:00:36.672Z,1016.35
2019-04-21T13:01:35.230Z,1016.33
2019-04-21T13:02:35.824Z,1016.32
2019-04-21T13:03:35.072Z,1016.31
2019-04-21T13:04:35.784Z,1016.29
2019-04-21T13:05:35.787Z,1016.29
2019-04-21T13:06:34.892Z,1016.28
2019-04-21T13:07:35.422Z,1016.22
2019-04-21T13:08:45.634Z,1016.22
2019-04-21T13:09:36.128Z,1016.19
2019-04-21T13:10:35.943Z,1016.20
2019-04-21T13:11:35.073Z,1016.18
2019-04-21T13:12:35.274Z,1016.14
2019-04-21T13:13:35.627Z,1016.16
2019-04-21T13:14:35.761Z,1016.17
2019-04-21T13:15:35.496Z,1016.09
2019-04-21T13:16:34.250Z,1016.06